createdAt,value
2019-03-18T00:00:18.233Z,49.80
2019-03-18T00:02:45.339Z,49.80
2019-03-18T00:05:12.441Z,49.80
2019-03-18T00:07:39.583Z,49.80
2019-03-18T00:10:06.908Z,49.80
2019-03-18T00:12:34.064Z,49.90
2019-03-18T00:15:02.265Z,49.80
2019-03-18T00:17:28.289Z,49.70
2019-03-18T00:19:55.389Z,49.80
2019-03-18T00:22:22.489Z,49.80
2019-03-18T00:24:49.573Z,49.80
2019-03-18T00:27:16.667Z,49.80
2019-03-18T00:29:43.781Z,49.70
2019-03-18T00:32:10.863Z,49.80
2019-03-18T00:34:37.973Z,49.70
2019-03-18T00:37:05.088Z,49.80
2019-03-18T00:39:32.230Z,49.70
2019-03-18T00:41:59.319Z,49.70
2019-03-18T00:44:26.400Z,49.70
2019-03-18T00:46:53.498Z,49.70
2019-03-18T00:49:20.597Z,49.60
2019-03-18T00:51:47.687Z,49.70
2019-03-18T00:54:14.780Z,49.70
2019-03-18T00:56:41.899Z,49.70
2019-03-18T00:59:09.002Z,49.60
2019-03-18T01:01:36.121Z,49.60
2019-03-18T01:04:03.352Z,49.70
2019-03-18T01:06:30.464Z,49.60
2019-03-18T01:08:57.521Z,49.60
2019-03-18T01:11:24.652Z,49.60
2019-03-18T01:13:51.769Z,49.60
2019-03-18T01:16:18.866Z,49.70
2019-03-18T01:18:45.961Z,49.60
2019-03-18T01:21:13.087Z,49.70
2019-03-18T01:23:40.232Z,49.60
2019-03-18T01:26:07.346Z,49.60
2019-03-18T01:28:34.464Z,49.60
2019-03-18T01:31:01.554Z,49.70
2019-03-18T01:33:28.670Z,49.60
2019-03-18T01:35:55.795Z,49.60
2019-03-18T01:38:22.894Z,49.60
2019-03-18T01:40:49.991Z,49.60
2019-03-18T01:43:17.108Z,49.60
2019-03-18T01:45:44.220Z,49.60
2019-03-18T01:48:11.312Z,49.60
2019-03-18T01:50:38.484Z,50.10
2019-03-18T01:53:05.597Z,49.60
2019-03-18T01:55:32.697Z,49.50
2019-03-18T01:57:59.809Z,49.50
2019-03-18T02:00:26.903Z,49.60
2019-03-18T02:02:54.093Z,49.50
2019-03-18T02:05:21.165Z,49.50
2019-03-18T02:07:48.268Z,49.50
2019-03-18T02:10:15.360Z,49.50
2019-03-18T02:12:42.502Z,49.50
2019-03-18T02:15:09.613Z,49.50
2019-03-18T02:17:36.733Z,49.50
2019-03-18T02:20:04.264Z,49.50
2019-03-18T02:22:31.369Z,49.50
2019-03-18T02:24:58.473Z,49.50
2019-03-18T02:27:25.581Z,49.40
2019-03-18T02:29:52.677Z,49.40
2019-03-18T02:32:19.778Z,50.00
2019-03-18T02:34:46.884Z,49.40
2019-03-18T02:37:13.997Z,49.40
2019-03-18T02:39:41.244Z,49.50
2019-03-18T02:42:08.306Z,49.40
2019-03-18T02:44:35.396Z,49.40
2019-03-18T02:47:02.502Z,49.40
2019-03-18T02:49:29.577Z,49.40
2019-03-18T02:51:56.695Z,49.40
2019-03-18T02:54:23.808Z,49.40
2019-03-18T02:56:50.962Z,49.40
2019-03-18T02:59:18.037Z,49.40
2019-03-18T03:01:45.165Z,49.20
2019-03-18T03:04:12.289Z,49.30
2019-03-18T03:06:39.410Z,49.40
2019-03-18T03:09:06.542Z,49.40
2019-03-18T03:11:34.481Z,49.30
2019-03-18T03:14:00.803Z,49.30
2019-03-18T03:16:27.932Z,49.40
2019-03-18T03:18:55.074Z,49.30
2019-03-18T03:21:22.185Z,49.30
2019-03-18T03:23:49.301Z,49.30
2019-03-18T03:26:16.410Z,49.20
2019-03-18T03:28:43.508Z,49.20
2019-03-18T03:31:10.916Z,49.30
2019-03-18T03:33:38.051Z,49.30
2019-03-18T03:36:05.166Z,49.20
2019-03-18T03:38:32.252Z,49.20
2019-03-18T03:40:59.348Z,49.20
2019-03-18T03:43:26.454Z,49.20
2019-03-18T03:45:53.557Z,49.20
2019-03-18T03:48:20.662Z,49.20
2019-03-18T03:50:47.775Z,49.10
2019-03-18T03:53:14.878Z,49.10
2019-03-18T03:55:42.082Z,49.10
2019-03-18T03:58:09.213Z,49.10
2019-03-18T04:00:36.321Z,49.20
2019-03-18T04:03:03.476Z,49.20
2019-03-18T04:05:30.586Z,49.20
2019-03-18T04:07:57.672Z,49.10
2019-03-18T04:10:24.796Z,49.10
2019-03-18T04:12:51.892Z,49.10
2019-03-18T04:15:19.025Z,49.00
2019-03-18T04:17:46.123Z,49.10
2019-03-18T04:20:13.245Z,49.10
2019-03-18T04:22:40.352Z,49.00
2019-03-18T04:25:07.475Z,49.00
2019-03-18T04:27:34.578Z,49.00
2019-03-18T04:30:01.694Z,48.90
2019-03-18T04:32:28.794Z,48.80
2019-03-18T04:34:55.885Z,48.90
2019-03-18T04:37:22.968Z,49.00
2019-03-18T04:39:50.086Z,49.00
2019-03-18T04:42:17.224Z,49.00
2019-03-18T04:44:44.312Z,49.00
2019-03-18T04:47:14.528Z,49.00
2019-03-18T04:49:38.542Z,49.00
2019-03-18T04:52:05.635Z,49.00
2019-03-18T04:54:32.720Z,48.90
2019-03-18T04:56:59.838Z,48.90
2019-03-18T04:59:26.928Z,49.00
2019-03-18T05:01:54.024Z,49.60
2019-03-18T05:04:21.106Z,48.80
2019-03-18T05:06:48.192Z,48.90
2019-03-18T05:09:15.315Z,48.90
2019-03-18T05:11:42.406Z,48.80
2019-03-18T05:14:09.773Z,48.90
2019-03-18T05:16:36.889Z,48.90
2019-03-18T05:19:04.006Z,48.90
2019-03-18T05:21:31.108Z,48.90
2019-03-18T05:23:58.220Z,48.90
2019-03-18T05:26:25.320Z,48.90
2019-03-18T05:28:52.404Z,48.90
2019-03-18T05:31:19.516Z,48.80
2019-03-18T05:33:46.600Z,48.80
2019-03-18T05:36:13.680Z,48.80
2019-03-18T05:38:40.782Z,48.80
2019-03-18T05:41:08.026Z,48.90
2019-03-18T05:43:35.057Z,48.90
2019-03-18T05:46:02.212Z,48.80
2019-03-18T05:48:29.325Z,48.80
2019-03-18T05:50:56.397Z,48.80
2019-03-18T05:53:23.512Z,48.80
2019-03-18T05:55:50.618Z,48.80
2019-03-18T05:58:17.704Z,48.80
2019-03-18T06:00:44.797Z,48.80
2019-03-18T06:03:11.890Z,48.80
2019-03-18T06:05:38.982Z,48.80
2019-03-18T06:08:06.083Z,48.80
2019-03-18T06:10:33.198Z,48.80
2019-03-18T06:13:00.318Z,48.80
2019-03-18T06:15:27.420Z,48.80
2019-03-18T06:17:54.514Z,48.80
2019-03-18T06:20:21.605Z,48.80
2019-03-18T06:22:48.692Z,48.80
2019-03-18T06:25:15.818Z,48.70
2019-03-18T06:27:42.924Z,48.80
2019-03-18T06:30:10.055Z,48.80
2019-03-18T06:32:37.165Z,48.80
2019-03-18T06:35:04.284Z,48.70
2019-03-18T06:37:31.401Z,48.80
2019-03-18T06:39:58.534Z,48.80
2019-03-18T06:42:25.652Z,48.80
2019-03-18T06:44:52.850Z,48.80
2019-03-18T06:47:19.972Z,48.70
2019-03-18T06:49:47.067Z,48.80
2019-03-18T06:52:14.196Z,48.70
2019-03-18T06:54:41.331Z,48.70
2019-03-18T06:57:08.420Z,48.70
2019-03-18T06:59:35.521Z,48.70
2019-03-18T07:02:02.628Z,48.70
2019-03-18T07:04:29.737Z,48.70
2019-03-18T07:06:56.838Z,48.70
2019-03-18T07:09:23.951Z,48.60
2019-03-18T07:11:51.033Z,48.70
2019-03-18T07:14:18.137Z,48.70
2019-03-18T07:16:45.270Z,48.70
2019-03-18T07:19:12.381Z,48.70
2019-03-18T07:21:39.493Z,48.70
2019-03-18T07:24:06.585Z,48.70
2019-03-18T07:26:33.709Z,48.70
2019-03-18T07:29:00.796Z,48.70
2019-03-18T07:31:27.897Z,48.70
2019-03-18T07:33:55.011Z,48.70
2019-03-18T07:36:22.113Z,48.70
2019-03-18T07:38:49.197Z,48.80
2019-03-18T07:41:16.296Z,48.70
2019-03-18T07:43:43.392Z,48.80
2019-03-18T07:46:10.510Z,48.70
2019-03-18T07:48:37.609Z,48.60
2019-03-18T07:51:04.768Z,48.60
2019-03-18T07:53:31.837Z,48.60
2019-03-18T07:55:58.983Z,48.60
2019-03-18T07:58:26.074Z,48.60
2019-03-18T08:00:53.304Z,48.70
2019-03-18T08:03:20.312Z,48.70
2019-03-18T08:05:47.406Z,48.60
2019-03-18T08:08:14.513Z,48.60
2019-03-18T08:10:41.613Z,48.60
2019-03-18T08:13:08.720Z,48.70
2019-03-18T08:15:35.837Z,48.60
2019-03-18T08:18:02.924Z,48.60
2019-03-18T08:20:30.072Z,48.60
2019-03-18T08:22:57.168Z,48.70
2019-03-18T08:25:24.269Z,48.70
2019-03-18T08:27:51.374Z,48.60
2019-03-18T08:30:18.487Z,48.00
2019-03-18T08:32:45.576Z,48.60
2019-03-18T08:35:12.680Z,48.70
2019-03-18T08:37:39.773Z,48.60
2019-03-18T08:40:07.159Z,48.60
2019-03-18T08:42:34.273Z,49.20
2019-03-18T08:45:01.382Z,48.60
2019-03-18T08:47:28.463Z,48.60
2019-03-18T08:49:55.565Z,48.50
2019-03-18T08:52:22.656Z,49.20
2019-03-18T08:54:49.772Z,48.60
2019-03-18T08:57:16.864Z,48.60
2019-03-18T08:59:43.965Z,48.60
2019-03-18T09:02:11.058Z,48.60
2019-03-18T09:04:38.165Z,48.60
2019-03-18T09:07:05.285Z,48.60
2019-03-18T09:09:32.410Z,48.60
2019-03-18T09:11:59.504Z,48.60
2019-03-18T09:14:26.610Z,48.60
2019-03-18T09:16:53.701Z,48.60
2019-03-18T09:19:20.817Z,48.50
2019-03-18T09:21:47.920Z,48.20
2019-03-18T09:24:15.009Z,48.50
2019-03-18T09:26:42.125Z,49.00
2019-03-18T09:29:09.241Z,48.50
2019-03-18T09:31:36.320Z,48.50
2019-03-18T09:34:03.421Z,48.50
2019-03-18T09:36:30.530Z,48.40
2019-03-18T09:38:57.634Z,48.50
2019-03-18T09:41:24.715Z,48.40
2019-03-18T09:43:51.809Z,48.50
2019-03-18T09:46:18.952Z,48.40
2019-03-18T09:48:46.029Z,48.40
2019-03-18T09:51:13.140Z,48.50
2019-03-18T09:53:40.248Z,48.40
2019-03-18T09:56:07.354Z,48.40
2019-03-18T09:58:34.488Z,48.40
2019-03-18T10:01:01.600Z,48.40
2019-03-18T10:03:28.757Z,48.40
2019-03-18T10:05:55.861Z,48.50
2019-03-18T10:08:25.113Z,48.50
2019-03-18T10:10:50.128Z,48.40
2019-03-18T10:13:17.212Z,48.50
2019-03-18T10:15:44.321Z,48.40
2019-03-18T10:18:11.421Z,48.40
2019-03-18T10:20:38.521Z,48.50
2019-03-18T10:23:05.627Z,48.40
2019-03-18T10:25:32.747Z,48.40
2019-03-18T10:27:59.828Z,48.40
2019-03-18T10:30:26.935Z,48.40
2019-03-18T10:32:54.041Z,48.40
2019-03-18T10:35:21.143Z,48.40
2019-03-18T10:37:48.283Z,48.40
2019-03-18T10:40:15.384Z,48.50
2019-03-18T10:42:43.223Z,48.30
2019-03-18T10:45:10.336Z,48.40
2019-03-18T10:47:37.448Z,48.40
2019-03-18T10:50:05.500Z,48.40
2019-03-18T10:52:32.612Z,48.40
2019-03-18T10:54:59.708Z,48.30
2019-03-18T10:57:26.830Z,48.30
2019-03-18T10:59:53.953Z,48.40
2019-03-18T11:02:21.053Z,48.30
2019-03-18T11:04:48.201Z,48.40
2019-03-18T11:07:22.133Z,48.40
2019-03-18T11:09:49.226Z,48.30
2019-03-18T11:12:16.312Z,48.40
2019-03-18T11:14:43.413Z,48.30
2019-03-18T11:17:10.516Z,48.30
2019-03-18T11:19:37.609Z,48.30
2019-03-18T11:22:04.738Z,48.30
2019-03-18T11:24:32.357Z,48.40
2019-03-18T11:26:59.472Z,48.40
2019-03-18T11:29:26.572Z,48.40
2019-03-18T11:31:54.305Z,48.40
2019-03-18T11:34:22.567Z,48.40
2019-03-18T11:36:49.728Z,48.40
2019-03-18T11:39:16.873Z,48.50
2019-03-18T11:41:43.985Z,48.60
2019-03-18T11:44:11.088Z,48.60
2019-03-18T11:46:40.433Z,48.50
2019-03-18T11:49:05.325Z,48.60
2019-03-18T11:51:32.460Z,48.60
2019-03-18T11:53:59.553Z,48.60
2019-03-18T11:56:26.652Z,48.70
2019-03-18T11:58:53.785Z,48.70
2019-03-18T12:01:20.872Z,48.70
2019-03-18T12:03:47.956Z,48.70
2019-03-18T12:06:15.053Z,48.70
2019-03-18T12:08:42.151Z,48.70
2019-03-18T12:11:09.257Z,48.70
2019-03-18T12:13:36.361Z,48.70
2019-03-18T12:16:03.449Z,48.60
2019-03-18T12:18:30.534Z,48.60
2019-03-18T12:20:57.653Z,48.70
2019-03-18T12:23:24.724Z,48.60
2019-03-18T12:25:51.901Z,48.60
2019-03-18T12:28:18.980Z,48.60
2019-03-18T12:30:46.130Z,48.60
2019-03-18T12:33:13.237Z,48.60
2019-03-18T12:35:40.359Z,48.60
2019-03-18T12:38:07.476Z,48.60
2019-03-18T12:40:34.587Z,48.60
2019-03-18T12:43:01.705Z,48.60
2019-03-18T12:45:28.806Z,48.60
2019-03-18T12:47:55.918Z,48.60
2019-03-18T12:50:38.773Z,48.50
2019-03-18T12:52:50.203Z,48.50
2019-03-18T12:55:17.293Z,48.50
2019-03-18T12:57:44.469Z,48.60
2019-03-18T13:00:15.969Z,48.60
2019-03-18T13:02:43.070Z,48.60
2019-03-18T13:05:10.191Z,48.60
2019-03-18T13:07:37.269Z,48.70
2019-03-18T13:10:05.607Z,48.70
2019-03-18T13:12:32.729Z,48.70
2019-03-18T13:14:59.813Z,48.80
2019-03-18T13:17:26.912Z,48.80
2019-03-18T13:19:54.009Z,48.80
2019-03-18T13:22:21.093Z,48.80
2019-03-18T13:24:48.205Z,48.80
2019-03-18T13:27:15.301Z,48.80
2019-03-18T13:29:42.407Z,48.80
2019-03-18T13:32:09.505Z,48.80
2019-03-18T13:34:36.611Z,48.80
2019-03-18T13:37:03.741Z,48.90
2019-03-18T13:39:30.853Z,48.80
2019-03-18T13:41:57.954Z,48.80
2019-03-18T13:44:25.058Z,48.90
2019-03-18T13:46:52.158Z,48.80
2019-03-18T13:49:19.262Z,48.90
2019-03-18T13:51:46.363Z,48.90
2019-03-18T13:54:13.468Z,48.80
2019-03-18T13:56:40.569Z,48.80
2019-03-18T13:59:07.713Z,48.90
2019-03-18T14:01:34.828Z,48.80
2019-03-18T14:04:01.959Z,48.80
2019-03-18T14:06:29.061Z,48.80
2019-03-18T14:08:56.146Z,48.80
2019-03-18T14:11:23.249Z,48.80
2019-03-18T14:13:50.317Z,48.80
2019-03-18T14:16:17.429Z,48.80
2019-03-18T14:18:44.523Z,48.90
2019-03-18T14:21:11.617Z,48.90
2019-03-18T14:23:38.705Z,48.90
2019-03-18T14:26:05.808Z,48.90
2019-03-18T14:28:32.882Z,48.90
2019-03-18T14:30:59.980Z,48.90
2019-03-18T14:33:27.045Z,48.90
2019-03-18T14:35:54.183Z,49.00
2019-03-18T14:38:21.267Z,48.90
2019-03-18T14:40:48.345Z,48.90
2019-03-18T14:43:15.444Z,48.90
2019-03-18T14:45:42.537Z,48.90
2019-03-18T14:48:09.637Z,48.90
2019-03-18T14:50:36.741Z,48.90
2019-03-18T14:53:03.845Z,48.90
2019-03-18T14:55:30.940Z,48.90
2019-03-18T14:57:58.110Z,48.90
2019-03-18T15:00:25.225Z,48.90
2019-03-18T15:02:52.309Z,48.80
2019-03-18T15:05:19.481Z,48.80
2019-03-18T15:07:46.589Z,48.80
2019-03-18T15:10:13.681Z,48.80
2019-03-18T15:12:40.825Z,48.80
2019-03-18T15:15:09.512Z,48.80
2019-03-18T15:17:36.605Z,48.80
2019-03-18T15:20:04.013Z,48.80
2019-03-18T15:22:31.101Z,48.80
2019-03-18T15:24:58.203Z,48.70
2019-03-18T15:27:25.312Z,48.70
2019-03-18T15:29:52.431Z,48.70
2019-03-18T15:32:19.521Z,48.70
2019-03-18T15:34:46.634Z,48.70
2019-03-18T15:37:13.736Z,48.70
2019-03-18T15:39:40.858Z,48.80
2019-03-18T15:42:07.970Z,48.70
2019-03-18T15:44:35.065Z,48.70
2019-03-18T15:47:02.155Z,48.70
2019-03-18T15:49:29.258Z,48.80
2019-03-18T15:51:56.350Z,48.80
2019-03-18T15:54:23.477Z,48.80
2019-03-18T15:56:50.576Z,48.80
2019-03-18T15:59:17.701Z,48.80
2019-03-18T16:01:45.058Z,48.70
2019-03-18T16:04:11.966Z,48.80
2019-03-18T16:06:39.083Z,48.80
2019-03-18T16:09:06.953Z,48.80
2019-03-18T16:11:34.064Z,48.80
2019-03-18T16:14:01.164Z,48.80
2019-03-18T16:16:28.249Z,48.80
2019-03-18T16:18:55.328Z,49.40
2019-03-18T16:21:22.445Z,48.70
2019-03-18T16:23:49.528Z,48.80
2019-03-18T16:26:16.620Z,48.80
2019-03-18T16:28:43.713Z,48.70
2019-03-18T16:31:10.816Z,48.80
2019-03-18T16:33:37.912Z,48.80
2019-03-18T16:36:05.045Z,48.80
2019-03-18T16:38:32.159Z,48.80
2019-03-18T16:40:59.268Z,48.80
2019-03-18T16:43:26.349Z,48.80
2019-03-18T16:45:53.465Z,48.80
2019-03-18T16:48:20.537Z,48.80
2019-03-18T16:50:47.636Z,48.80
2019-03-18T16:53:14.722Z,48.70
2019-03-18T16:55:41.808Z,48.70
2019-03-18T16:58:08.894Z,48.70
2019-03-18T17:00:36.029Z,48.70
2019-03-18T17:03:03.154Z,48.70
2019-03-18T17:05:30.273Z,48.70
2019-03-18T17:07:57.398Z,48.70
2019-03-18T17:10:24.512Z,48.70
2019-03-18T17:12:51.617Z,48.70
2019-03-18T17:15:18.734Z,48.70
2019-03-18T17:17:45.852Z,48.80
2019-03-18T17:20:12.958Z,48.70
2019-03-18T17:22:48.939Z,48.70
2019-03-18T17:25:09.184Z,48.70
2019-03-18T17:27:36.302Z,48.70
2019-03-18T17:30:04.775Z,48.70
2019-03-18T17:32:31.932Z,48.70
2019-03-18T17:34:59.036Z,48.70
2019-03-18T17:37:26.138Z,48.70
2019-03-18T17:39:53.290Z,48.70
2019-03-18T17:42:20.369Z,48.70
2019-03-18T17:44:47.457Z,48.80
2019-03-18T17:47:14.553Z,48.70
2019-03-18T17:49:41.662Z,48.80
2019-03-18T17:52:08.770Z,49.50
2019-03-18T17:54:35.857Z,48.80
2019-03-18T17:57:07.574Z,48.90
2019-03-18T17:59:30.098Z,48.80
2019-03-18T18:01:57.189Z,48.80
2019-03-18T18:04:24.304Z,48.80
2019-03-18T18:06:51.409Z,48.80
2019-03-18T18:09:18.520Z,48.90
2019-03-18T18:11:45.609Z,48.90
2019-03-18T18:14:12.681Z,48.80
2019-03-18T18:16:39.837Z,48.80
2019-03-18T18:19:06.947Z,48.80
2019-03-18T18:21:34.045Z,48.80
2019-03-18T18:24:01.128Z,48.80
2019-03-18T18:26:28.237Z,48.80
2019-03-18T18:28:55.350Z,48.90
2019-03-18T18:31:22.453Z,48.80
2019-03-18T18:33:49.534Z,48.90
2019-03-18T18:36:16.616Z,48.90
2019-03-18T18:38:43.693Z,48.80
2019-03-18T18:41:10.773Z,48.80
2019-03-18T18:43:37.892Z,48.90
2019-03-18T18:46:05.009Z,48.90
2019-03-18T18:48:32.079Z,48.90
2019-03-18T18:50:59.224Z,48.90
2019-03-18T18:53:26.918Z,48.90
2019-03-18T18:55:53.445Z,48.80
2019-03-18T18:58:20.516Z,48.90
2019-03-18T19:00:47.609Z,48.90
2019-03-18T19:03:14.728Z,48.90
2019-03-18T19:05:41.860Z,49.00
2019-03-18T19:08:08.981Z,49.00
2019-03-18T19:10:36.074Z,48.90
2019-03-18T19:13:03.225Z,49.00
2019-03-18T19:15:30.441Z,48.90
2019-03-18T19:17:57.545Z,49.00
2019-03-18T19:20:24.621Z,49.00
2019-03-18T19:22:51.753Z,49.00
2019-03-18T19:25:18.849Z,49.00
2019-03-18T19:27:45.957Z,49.00
2019-03-18T19:30:15.019Z,49.00
2019-03-18T19:32:42.110Z,48.90
2019-03-18T19:35:09.212Z,49.00
2019-03-18T19:37:36.310Z,48.90
2019-03-18T19:40:04.141Z,48.90
2019-03-18T19:42:31.249Z,49.00
2019-03-18T19:44:58.357Z,48.90
2019-03-18T19:47:25.484Z,48.90
2019-03-18T19:49:52.577Z,48.80
2019-03-18T19:52:19.641Z,48.90
2019-03-18T19:54:46.737Z,48.90
2019-03-18T19:57:13.822Z,48.90
2019-03-18T19:59:40.917Z,48.90
2019-03-18T20:02:08.001Z,48.80
2019-03-18T20:04:35.123Z,48.80
2019-03-18T20:07:02.224Z,48.80
2019-03-18T20:09:29.384Z,48.80
2019-03-18T20:11:56.499Z,48.80
2019-03-18T20:14:23.601Z,48.80
2019-03-18T20:16:50.687Z,48.80
2019-03-18T20:19:17.837Z,48.80
2019-03-18T20:21:44.919Z,48.80
2019-03-18T20:24:11.996Z,48.80
2019-03-18T20:26:39.089Z,48.80
2019-03-18T20:29:06.175Z,48.80
2019-03-18T20:31:33.287Z,48.80
2019-03-18T20:34:00.361Z,48.80
2019-03-18T20:36:27.441Z,48.80
2019-03-18T20:38:54.556Z,48.80
2019-03-18T20:41:21.661Z,48.80
2019-03-18T20:43:48.780Z,48.80
2019-03-18T20:46:15.916Z,48.80
2019-03-18T20:48:42.984Z,48.80
2019-03-18T20:51:10.052Z,48.80
2019-03-18T20:53:37.147Z,48.80
2019-03-18T20:56:04.218Z,48.80
2019-03-18T20:58:31.301Z,48.80
2019-03-18T21:00:58.373Z,48.80
2019-03-18T21:03:25.481Z,48.80
2019-03-18T21:05:52.569Z,48.80
2019-03-18T21:08:19.676Z,48.70
2019-03-18T21:10:46.775Z,48.70
2019-03-18T21:13:13.873Z,48.70
2019-03-18T21:15:40.981Z,48.70
2019-03-18T21:18:08.117Z,48.70
2019-03-18T21:20:35.215Z,48.70
2019-03-18T21:23:02.293Z,48.70
2019-03-18T21:25:29.413Z,48.70
2019-03-18T21:27:56.508Z,48.70
2019-03-18T21:30:23.604Z,48.70
2019-03-18T21:32:50.728Z,48.70
2019-03-18T21:35:17.970Z,48.80
2019-03-18T21:37:45.079Z,48.70
2019-03-18T21:40:12.395Z,48.70
2019-03-18T21:42:39.492Z,48.70
2019-03-18T21:45:07.916Z,48.60
2019-03-18T21:47:35.012Z,48.70
2019-03-18T21:50:02.158Z,48.60
2019-03-18T21:52:29.219Z,48.60
2019-03-18T21:54:56.345Z,48.60
2019-03-18T21:57:23.441Z,48.70
2019-03-18T21:59:50.536Z,48.60
2019-03-18T22:02:17.667Z,48.70
2019-03-18T22:04:44.759Z,48.60
2019-03-18T22:07:11.844Z,48.70
2019-03-18T22:09:38.945Z,48.70
2019-03-18T22:12:06.021Z,48.60
2019-03-18T22:14:33.158Z,48.70
2019-03-18T22:17:00.309Z,48.70
2019-03-18T22:19:27.473Z,48.60
2019-03-18T22:21:54.540Z,48.60
2019-03-18T22:24:21.641Z,48.60
2019-03-18T22:26:48.713Z,48.60
2019-03-18T22:29:15.825Z,48.60
2019-03-18T22:31:42.938Z,48.60
2019-03-18T22:34:09.996Z,48.50
2019-03-18T22:36:37.106Z,48.60
2019-03-18T22:39:06.819Z,48.50
2019-03-18T22:41:33.934Z,48.60
2019-03-18T22:44:01.056Z,48.60
2019-03-18T22:46:28.125Z,48.60
2019-03-18T22:48:55.213Z,48.60
2019-03-18T22:51:22.302Z,48.60
2019-03-18T22:53:49.448Z,48.60
2019-03-18T22:56:16.536Z,48.60
2019-03-18T22:58:43.631Z,48.50
2019-03-18T23:01:13.357Z,48.50
2019-03-18T23:03:40.485Z,48.50
2019-03-18T23:06:07.609Z,48.60
2019-03-18T23:08:34.710Z,48.60
2019-03-18T23:11:01.817Z,48.60
2019-03-18T23:13:28.943Z,48.60
2019-03-18T23:15:56.021Z,48.50
2019-03-18T23:18:23.105Z,48.50
2019-03-18T23:20:50.208Z,48.50
2019-03-18T23:23:17.309Z,48.60
2019-03-18T23:25:44.434Z,48.50
2019-03-18T23:28:11.530Z,48.50
2019-03-18T23:30:38.617Z,48.50
2019-03-18T23:33:05.720Z,48.60
2019-03-18T23:35:32.808Z,48.60
2019-03-18T23:37:59.898Z,48.50
2019-03-18T23:40:26.985Z,48.50
2019-03-18T23:42:54.078Z,48.50
2019-03-18T23:45:21.177Z,48.50
2019-03-18T23:47:48.314Z,48.50
2019-03-18T23:50:15.426Z,48.50
2019-03-18T23:52:42.517Z,48.50
2019-03-18T23:55:18.379Z,48.60
2019-03-18T23:57:36.744Z,48.50
